createdAt,value
2022-12-19T00:00:34.947Z,-2.25
2022-12-19T00:03:02.838Z,-2.24
2022-12-19T00:05:31.088Z,-2.23
2022-12-19T00:08:00.554Z,-2.22
2022-12-19T00:10:35.847Z,-2.21
2022-12-19T00:13:03.593Z,-2.21
2022-12-19T00:15:31.376Z,-2.21
2022-12-19T00:17:59.472Z,-2.21
2022-12-19T00:20:27.621Z,-2.20
2022-12-19T00:22:55.447Z,-2.20
2022-12-19T00:25:23.677Z,-2.20
2022-12-19T00:27:54.426Z,-2.19
2022-12-19T00:30:22.408Z,-2.10
2022-12-19T00:32:51.198Z,-2.08
2022-12-19T00:35:18.987Z,-1.92
2022-12-19T00:37:49.375Z,-1.89
2022-12-19T00:40:18.487Z,-1.93
2022-12-19T00:42:51.678Z,-1.96
2022-12-19T00:45:23.484Z,-2.01
2022-12-19T00:47:51.337Z,-2.01
2022-12-19T00:50:19.330Z,-2.02
2022-12-19T00:52:47.554Z,-2.00
2022-12-19T00:55:18.990Z,-1.85
2022-12-19T00:57:48.578Z,-1.84
2022-12-19T01:00:18.636Z,-1.78
2022-12-19T01:02:47.963Z,-1.64
2022-12-19T01:05:16.885Z,-1.63
2022-12-19T01:07:44.698Z,-1.59
2022-12-19T01:10:12.549Z,-1.47
2022-12-19T01:12:48.787Z,-1.45
2022-12-19T01:15:18.858Z,-1.45
2022-12-19T01:17:48.885Z,-1.46
2022-12-19T01:20:24.334Z,-1.47
2022-12-19T01:23:00.864Z,-1.37
2022-12-19T01:25:28.899Z,-1.43
2022-12-19T01:27:57.192Z,-1.42
2022-12-19T01:30:26.127Z,-1.40
2022-12-19T01:32:57.655Z,-1.26
2022-12-19T01:35:26.388Z,-1.32
2022-12-19T01:38:07.604Z,-1.31
2022-12-19T01:40:37.241Z,-1.27
2022-12-19T01:43:05.598Z,-1.26
2022-12-19T01:45:45.229Z,-1.27
2022-12-19T01:48:20.916Z,-1.21
2022-12-19T01:51:01.345Z,-1.21
2022-12-19T01:53:34.607Z,-1.24
2022-12-19T01:56:10.409Z,-1.26
2022-12-19T01:58:40.955Z,-1.28
2022-12-19T02:01:10.872Z,-1.29
2022-12-19T02:03:41.548Z,-1.32
2022-12-19T02:06:10.728Z,-1.30
2022-12-19T02:08:39.274Z,-1.29
2022-12-19T02:11:07.178Z,-1.25
2022-12-19T02:13:35.900Z,-1.27
2022-12-19T02:16:13.476Z,-1.26
2022-12-19T02:18:49.893Z,-1.22
2022-12-19T02:21:26.421Z,-1.13
2022-12-19T02:24:25.565Z,-1.18
2022-12-19T02:27:13.541Z,-1.08
2022-12-19T02:30:08.025Z,-1.12
2022-12-19T02:32:44.466Z,-1.15
2022-12-19T02:35:20.826Z,-1.14
2022-12-19T02:37:54.473Z,-1.15
2022-12-19T02:40:28.694Z,-1.15
2022-12-19T02:43:00.291Z,-1.16
2022-12-19T02:45:32.256Z,-1.14
2022-12-19T02:48:08.433Z,-1.13
2022-12-19T02:50:39.152Z,-1.11
2022-12-19T02:53:07.558Z,-1.04
2022-12-19T02:55:43.940Z,-1.06
2022-12-19T02:58:31.678Z,-1.10
2022-12-19T03:01:12.420Z,-1.08
2022-12-19T03:03:53.092Z,-1.06
2022-12-19T03:06:28.077Z,-1.06
2022-12-19T03:09:03.562Z,-1.02
2022-12-19T03:11:37.237Z,-0.81
2022-12-19T03:14:08.609Z,-0.85
2022-12-19T03:16:37.804Z,-0.86
2022-12-19T03:19:11.175Z,-0.74
2022-12-19T03:21:41.848Z,-0.64
2022-12-19T03:24:11.680Z,-0.37
2022-12-19T03:26:47.544Z,-0.53
2022-12-19T03:29:20.759Z,-0.57
2022-12-19T03:31:49.388Z,-0.55
2022-12-19T03:34:26.382Z,-0.57
2022-12-19T03:36:59.029Z,-0.43
2022-12-19T03:39:29.982Z,-0.45
2022-12-19T03:42:18.078Z,-0.45
2022-12-19T03:44:46.132Z,-0.46
2022-12-19T03:47:19.623Z,-0.48
2022-12-19T03:49:50.602Z,-0.52
2022-12-19T03:52:28.640Z,-0.53
2022-12-19T03:55:02.440Z,-0.57
2022-12-19T03:57:37.136Z,-0.50
2022-12-19T04:00:08.843Z,-0.55
2022-12-19T04:02:39.795Z,-0.52
2022-12-19T04:05:12.158Z,-0.47
2022-12-19T04:07:41.941Z,-0.50
2022-12-19T04:10:15.629Z,-0.53
2022-12-19T04:12:48.936Z,-0.51
2022-12-19T04:15:17.781Z,-0.48
2022-12-19T04:17:49.945Z,-0.46
2022-12-19T04:20:22.205Z,-0.44
2022-12-19T04:22:55.832Z,-0.42
2022-12-19T04:25:29.672Z,-0.41
2022-12-19T04:28:04.728Z,-0.38
2022-12-19T04:30:36.597Z,-0.40
2022-12-19T04:33:05.461Z,-0.35
2022-12-19T04:35:37.997Z,-0.36
2022-12-19T04:38:07.170Z,-0.35
2022-12-19T04:40:41.290Z,-0.31
2022-12-19T04:43:10.337Z,-0.25
2022-12-19T04:45:38.378Z,-0.26
2022-12-19T04:48:08.184Z,-0.24
2022-12-19T04:50:39.052Z,-0.20
2022-12-19T04:53:07.536Z,-0.19
2022-12-19T04:55:35.414Z,-0.16
2022-12-19T04:58:05.040Z,-0.18
2022-12-19T05:00:33.359Z,-0.12
2022-12-19T05:03:01.251Z,-0.12
2022-12-19T05:05:29.396Z,-0.15
2022-12-19T05:07:58.664Z,-0.14
2022-12-19T05:10:26.598Z,-0.13
2022-12-19T05:12:55.913Z,-0.13
2022-12-19T05:15:24.885Z,-0.02
2022-12-19T05:17:53.166Z,-0.11
2022-12-19T05:20:21.227Z,-0.10
2022-12-19T05:22:49.043Z,-0.05
2022-12-19T05:25:18.601Z,0.18
2022-12-19T05:27:46.796Z,0.16
2022-12-19T05:30:15.038Z,0.21
2022-12-19T05:32:43.118Z,0.38
2022-12-19T05:35:11.467Z,0.33
2022-12-19T05:37:39.308Z,0.53
2022-12-19T05:40:08.536Z,0.55
2022-12-19T05:42:38.216Z,0.58
2022-12-19T05:45:06.636Z,0.59
2022-12-19T05:47:34.506Z,0.76
2022-12-19T05:50:02.402Z,0.89
2022-12-19T05:52:31.303Z,0.80
2022-12-19T05:54:59.320Z,0.77
2022-12-19T05:57:27.869Z,0.89
2022-12-19T05:59:57.076Z,0.77
2022-12-19T06:02:25.334Z,0.73
2022-12-19T06:04:54.359Z,0.75
2022-12-19T06:07:22.458Z,0.82
2022-12-19T06:09:50.288Z,0.89
2022-12-19T06:12:19.949Z,0.88
2022-12-19T06:14:47.959Z,0.85
2022-12-19T06:17:17.498Z,0.93
2022-12-19T06:19:46.643Z,1.05
2022-12-19T06:22:14.581Z,1.07
2022-12-19T06:24:44.920Z,1.07
2022-12-19T06:27:12.851Z,1.06
2022-12-19T06:29:40.978Z,1.02
2022-12-19T06:32:09.096Z,1.12
2022-12-19T06:37:27.420Z,1.23
2022-12-19T06:39:55.609Z,1.09
2022-12-19T06:42:25.530Z,1.06
2022-12-19T06:44:56.101Z,1.17
2022-12-19T06:47:25.397Z,1.17
2022-12-19T06:49:54.942Z,1.13
2022-12-19T06:52:23.196Z,1.15
2022-12-19T06:54:51.590Z,1.15
2022-12-19T06:57:19.715Z,1.14
2022-12-19T06:59:47.840Z,1.27
2022-12-19T07:02:27.915Z,1.27
2022-12-19T07:05:02.858Z,1.29
2022-12-19T07:10:18.764Z,1.45
2022-12-19T07:12:46.964Z,1.42
2022-12-19T07:15:15.022Z,1.38
2022-12-19T07:17:44.095Z,1.33
2022-12-19T07:20:15.183Z,1.32
2022-12-19T07:22:44.182Z,1.28
2022-12-19T07:25:12.753Z,1.23
2022-12-19T07:27:40.930Z,1.25
2022-12-19T07:30:10.641Z,1.21
2022-12-19T07:32:39.587Z,1.22
2022-12-19T07:35:10.787Z,1.16
2022-12-19T07:37:40.553Z,1.18
2022-12-19T07:40:09.770Z,1.20
2022-12-19T07:42:37.550Z,1.18
2022-12-19T07:45:06.553Z,1.28
2022-12-19T07:47:35.361Z,1.34
2022-12-19T07:50:03.885Z,1.33
2022-12-19T07:52:32.385Z,1.40
2022-12-19T07:55:01.944Z,1.35
2022-12-19T07:57:31.291Z,1.28
2022-12-19T07:59:59.675Z,1.29
2022-12-19T08:02:27.922Z,1.30
2022-12-19T08:04:56.027Z,1.36
2022-12-19T08:07:24.455Z,1.35
2022-12-19T08:09:52.309Z,1.35
2022-12-19T08:12:21.576Z,1.38
2022-12-19T08:14:54.166Z,1.45
2022-12-19T08:17:24.940Z,1.51
2022-12-19T08:19:53.803Z,1.55
2022-12-19T08:22:22.314Z,1.60
2022-12-19T08:24:50.201Z,1.63
2022-12-19T08:27:18.936Z,1.65
2022-12-19T08:29:48.702Z,1.71
2022-12-19T08:32:21.132Z,1.72
2022-12-19T08:34:50.309Z,1.77
2022-12-19T08:37:18.347Z,1.75
2022-12-19T08:39:46.202Z,1.78
2022-12-19T08:42:14.537Z,1.83
2022-12-19T08:44:43.781Z,1.87
2022-12-19T08:47:13.585Z,1.90
2022-12-19T08:49:41.632Z,1.95
2022-12-19T08:52:09.647Z,2.00
2022-12-19T08:54:38.174Z,2.09
2022-12-19T08:57:07.107Z,2.16
2022-12-19T08:59:35.077Z,2.26
2022-12-19T09:02:04.965Z,2.35
2022-12-19T09:06:00.268Z,2.42
2022-12-19T09:07:27.702Z,2.46
2022-12-19T09:09:56.060Z,2.49
2022-12-19T09:12:24.089Z,2.52
2022-12-19T09:14:51.996Z,2.53
2022-12-19T09:17:21.299Z,2.60
2022-12-19T09:19:50.805Z,2.67
2022-12-19T09:22:19.361Z,2.74
2022-12-19T09:24:47.365Z,2.81
2022-12-19T09:27:15.352Z,2.85
2022-12-19T09:29:43.749Z,2.90
2022-12-19T09:32:12.681Z,2.99
2022-12-19T09:34:40.824Z,3.04
2022-12-19T09:37:16.760Z,3.08
2022-12-19T09:39:46.832Z,3.24
2022-12-19T09:42:28.019Z,3.21
2022-12-19T09:45:27.416Z,3.25
2022-12-19T09:48:00.833Z,3.37
2022-12-19T09:50:38.431Z,3.43
2022-12-19T09:53:18.076Z,3.42
2022-12-19T09:55:48.483Z,3.38
2022-12-19T09:58:30.229Z,3.73
2022-12-19T10:01:00.568Z,3.59
2022-12-19T10:03:40.028Z,3.62
2022-12-19T10:07:11.197Z,3.68
2022-12-19T10:11:20.868Z,3.73
2022-12-19T10:12:43.501Z,3.76
2022-12-19T10:15:20.431Z,3.87
2022-12-19T10:18:06.460Z,3.89
2022-12-19T10:20:38.556Z,3.96
2022-12-19T10:23:26.127Z,3.99
2022-12-19T10:26:01.584Z,3.98
2022-12-19T10:28:56.297Z,3.94
2022-12-19T10:31:34.338Z,3.93
2022-12-19T10:34:07.823Z,3.99
2022-12-19T10:39:49.735Z,3.96
2022-12-19T10:42:31.359Z,3.99
2022-12-19T10:45:04.242Z,4.09
2022-12-19T10:47:32.323Z,4.19
2022-12-19T10:50:05.410Z,4.38
2022-12-19T10:52:52.271Z,4.62
2022-12-19T10:55:33.855Z,4.81
2022-12-19T10:58:21.819Z,4.86
2022-12-19T11:01:06.282Z,4.84
2022-12-19T11:03:35.932Z,4.81
2022-12-19T11:06:06.776Z,4.78
2022-12-19T11:08:36.633Z,4.82
2022-12-19T11:13:32.224Z,4.81
2022-12-19T11:18:44.490Z,4.91
2022-12-19T11:28:26.009Z,4.95
2022-12-19T11:29:26.910Z,5.13
2022-12-19T11:30:45.317Z,5.28
2022-12-19T11:30:46.768Z,5.45
2022-12-19T11:30:59.414Z,5.61
2022-12-19T11:34:36.211Z,5.70
2022-12-19T11:37:19.514Z,5.67
2022-12-19T11:39:59.767Z,5.66
2022-12-19T11:42:32.777Z,5.60
2022-12-19T11:45:08.691Z,5.53
2022-12-19T11:47:45.369Z,5.42
2022-12-19T11:50:19.463Z,5.34
2022-12-19T11:53:04.196Z,5.28
2022-12-19T11:55:42.133Z,5.22
2022-12-19T11:58:12.165Z,5.33
2022-12-19T12:00:46.287Z,5.48
2022-12-19T12:03:55.925Z,5.42
2022-12-19T12:06:34.540Z,5.36
2022-12-19T12:13:31.761Z,5.34
2022-12-19T12:15:58.282Z,5.33
2022-12-19T12:31:10.850Z,5.24
2022-12-19T12:31:14.157Z,5.16
2022-12-19T12:31:18.383Z,5.19
2022-12-19T12:31:43.268Z,5.18
2022-12-19T12:31:44.719Z,5.12
2022-12-19T12:31:57.582Z,5.13
2022-12-19T12:35:56.945Z,5.17
2022-12-19T12:39:04.693Z,5.31
2022-12-19T12:42:01.939Z,5.44
2022-12-19T12:44:33.818Z,5.61
2022-12-19T12:47:10.959Z,5.73
2022-12-19T12:49:41.482Z,5.82
2022-12-19T12:52:17.499Z,5.95
2022-12-19T12:54:51.620Z,6.06
2022-12-19T12:57:33.901Z,6.09
2022-12-19T13:00:20.622Z,6.11
2022-12-19T13:02:53.709Z,6.13
2022-12-19T13:05:32.927Z,6.19
2022-12-19T13:08:00.823Z,6.19
2022-12-19T13:10:32.946Z,6.16
2022-12-19T13:13:07.981Z,6.15
2022-12-19T13:15:44.736Z,6.13
2022-12-19T13:18:32.081Z,6.12
2022-12-19T13:21:01.662Z,6.13
2022-12-19T13:24:16.272Z,6.10
2022-12-19T13:26:50.196Z,6.11
2022-12-19T13:29:31.128Z,6.12
2022-12-19T13:32:17.390Z,6.07
2022-12-19T13:34:58.585Z,6.01
2022-12-19T13:39:47.738Z,5.96
2022-12-19T13:40:51.591Z,5.90
2022-12-19T13:43:43.085Z,5.84
2022-12-19T13:46:26.313Z,5.75
2022-12-19T13:48:57.937Z,5.71
2022-12-19T13:51:26.696Z,5.66
2022-12-19T13:53:59.489Z,5.62
2022-12-19T13:56:32.433Z,5.55
2022-12-19T13:59:04.674Z,5.48
2022-12-19T14:01:35.496Z,5.42
2022-12-19T14:04:08.356Z,5.39
2022-12-19T14:06:42.702Z,5.36
2022-12-19T14:11:28.907Z,5.32
2022-12-19T14:13:43.950Z,5.29
2022-12-19T14:15:34.524Z,5.29
2022-12-19T14:18:29.975Z,5.27
2022-12-19T14:22:03.653Z,5.24
2022-12-19T14:24:12.812Z,5.15
2022-12-19T14:28:26.134Z,5.14
2022-12-19T14:30:28.486Z,5.09
2022-12-19T14:33:44.433Z,5.06
2022-12-19T14:36:07.474Z,5.05
2022-12-19T14:39:24.766Z,4.99
2022-12-19T14:41:08.416Z,4.90
2022-12-19T14:50:16.086Z,4.86
2022-12-19T14:54:05.917Z,4.73
2022-12-19T14:54:15.964Z,4.79
2022-12-19T14:54:55.283Z,4.69
2022-12-19T14:56:12.935Z,4.64
2022-12-19T14:58:56.011Z,4.59
2022-12-19T15:01:24.193Z,4.56
2022-12-19T15:04:50.397Z,4.54
2022-12-19T15:07:10.098Z,4.56
2022-12-19T15:11:00.651Z,4.58
2022-12-19T15:14:04.075Z,4.55
2022-12-19T15:15:43.360Z,4.58
2022-12-19T15:18:21.338Z,4.57
2022-12-19T15:20:50.269Z,4.57
2022-12-19T15:23:22.558Z,4.59
2022-12-19T15:26:04.571Z,4.61
2022-12-19T15:28:39.202Z,4.57
2022-12-19T15:31:15.762Z,4.48
2022-12-19T15:34:00.176Z,4.50
2022-12-19T15:36:32.089Z,4.46
2022-12-19T15:39:01.748Z,4.50
2022-12-19T15:41:29.749Z,4.49
2022-12-19T15:44:04.160Z,4.49
2022-12-19T15:46:33.127Z,4.47
2022-12-19T15:49:02.368Z,4.42
2022-12-19T15:51:30.635Z,4.35
2022-12-19T15:54:22.178Z,4.35
2022-12-19T15:56:52.904Z,4.31
2022-12-19T15:59:34.818Z,4.28
2022-12-19T16:02:14.692Z,4.26
2022-12-19T16:04:43.255Z,4.23
2022-12-19T16:07:15.990Z,4.18
2022-12-19T16:09:43.917Z,4.12
2022-12-19T16:12:16.194Z,4.07
2022-12-19T16:14:45.348Z,4.03
2022-12-19T16:17:24.712Z,4.01
2022-12-19T16:19:54.215Z,3.97
2022-12-19T16:22:24.350Z,4.07
2022-12-19T16:24:53.512Z,4.01
2022-12-19T16:27:27.097Z,4.02
2022-12-19T16:29:55.954Z,4.03
2022-12-19T16:32:25.703Z,4.04
2022-12-19T16:34:54.713Z,4.07
2022-12-19T16:37:31.969Z,4.07
2022-12-19T16:40:02.388Z,4.07
2022-12-19T16:42:35.447Z,4.09
2022-12-19T16:45:04.708Z,4.11
2022-12-19T16:47:32.880Z,4.12
2022-12-19T16:50:00.913Z,4.15
2022-12-19T16:52:29.307Z,4.18
2022-12-19T16:54:57.232Z,4.18
2022-12-19T16:57:25.591Z,4.23
2022-12-19T16:59:55.822Z,4.28
2022-12-19T17:02:44.534Z,4.49
2022-12-19T17:05:24.502Z,4.52
2022-12-19T17:07:53.452Z,4.52
2022-12-19T17:10:26.650Z,4.49
2022-12-19T17:12:55.741Z,4.47
2022-12-19T17:15:29.284Z,4.49
2022-12-19T17:18:01.995Z,4.47
2022-12-19T17:20:37.154Z,4.48
2022-12-19T17:23:13.665Z,4.51
2022-12-19T17:25:42.002Z,4.44
2022-12-19T17:28:10.264Z,4.34
2022-12-19T17:30:41.203Z,4.27
2022-12-19T17:33:15.978Z,4.15
2022-12-19T17:35:45.115Z,4.07
2022-12-19T17:38:15.103Z,4.06
2022-12-19T17:40:43.530Z,4.17
2022-12-19T17:43:13.024Z,4.15
2022-12-19T17:45:43.235Z,4.12
2022-12-19T17:48:22.600Z,4.10
2022-12-19T17:50:50.621Z,4.13
2022-12-19T17:53:18.988Z,4.12
2022-12-19T17:55:47.453Z,4.12
2022-12-19T17:58:15.784Z,4.11
2022-12-19T18:00:47.659Z,4.20
2022-12-19T18:03:22.744Z,4.16
2022-12-19T18:05:53.626Z,4.18
2022-12-19T18:08:27.756Z,4.17
2022-12-19T18:10:58.036Z,4.16
2022-12-19T18:13:27.280Z,4.11
2022-12-19T18:16:00.028Z,4.08
2022-12-19T18:18:30.873Z,4.08
2022-12-19T18:21:00.885Z,4.14
2022-12-19T18:23:30.462Z,4.12
2022-12-19T18:26:01.890Z,4.10
2022-12-19T18:28:30.543Z,4.16
2022-12-19T18:31:04.024Z,4.15
2022-12-19T18:33:43.157Z,4.15
2022-12-19T18:36:18.870Z,4.16
2022-12-19T18:38:47.569Z,4.21
2022-12-19T18:41:16.852Z,4.20
2022-12-19T18:43:51.755Z,4.22
2022-12-19T18:46:29.636Z,4.19
2022-12-19T18:48:59.712Z,4.19
2022-12-19T18:51:27.948Z,4.17
2022-12-19T18:53:55.923Z,4.24
2022-12-19T18:56:25.590Z,4.22
2022-12-19T18:58:53.845Z,4.21
2022-12-19T19:01:23.192Z,4.19
2022-12-19T19:03:55.340Z,4.16
2022-12-19T19:06:25.647Z,4.14
2022-12-19T19:08:54.031Z,4.14
2022-12-19T19:11:23.963Z,4.06
2022-12-19T19:13:52.380Z,4.03
2022-12-19T19:16:25.077Z,3.96
2022-12-19T19:18:54.347Z,3.97
2022-12-19T19:21:25.814Z,3.91
2022-12-19T19:23:57.447Z,3.88
2022-12-19T19:26:25.914Z,3.87
2022-12-19T19:28:53.764Z,3.83
2022-12-19T19:31:27.005Z,3.79
2022-12-19T19:33:59.226Z,3.77
2022-12-19T19:36:32.274Z,3.78
2022-12-19T19:39:00.538Z,3.74
2022-12-19T19:41:30.113Z,3.74
2022-12-19T19:43:59.186Z,3.73
2022-12-19T19:46:29.285Z,3.88
2022-12-19T19:48:58.175Z,3.93
2022-12-19T19:51:29.526Z,3.93
2022-12-19T19:53:57.537Z,3.92
2022-12-19T19:56:25.349Z,3.94
2022-12-19T19:58:55.425Z,3.92
2022-12-19T20:01:24.425Z,3.90
2022-12-19T20:03:54.338Z,3.88
2022-12-19T20:06:22.600Z,3.85
2022-12-19T20:08:53.439Z,3.81
2022-12-19T20:11:21.609Z,3.79
2022-12-19T20:13:51.897Z,3.79
2022-12-19T20:16:20.743Z,3.80
2022-12-19T20:18:50.864Z,3.79
2022-12-19T20:21:25.083Z,3.81
2022-12-19T20:23:55.897Z,3.85
2022-12-19T20:26:24.362Z,3.86
2022-12-19T20:28:53.200Z,3.86
2022-12-19T20:31:24.601Z,3.91
2022-12-19T20:33:54.997Z,3.91
2022-12-19T20:36:25.273Z,3.95
2022-12-19T20:38:56.326Z,4.18
2022-12-19T20:41:24.158Z,4.14
2022-12-19T20:43:53.065Z,4.12
2022-12-19T20:46:22.499Z,4.11
2022-12-19T20:48:51.166Z,4.12
2022-12-19T20:51:21.344Z,4.13
2022-12-19T20:53:54.943Z,4.13
2022-12-19T20:56:25.868Z,4.16
2022-12-19T20:58:54.013Z,4.26
2022-12-19T21:01:24.636Z,4.28
2022-12-19T21:03:53.703Z,4.36
2022-12-19T21:06:25.709Z,4.40
2022-12-19T21:08:55.607Z,4.38
2022-12-19T21:11:24.373Z,4.35
2022-12-19T21:13:52.615Z,4.28
2022-12-19T21:16:22.564Z,4.22
2022-12-19T21:18:51.643Z,4.12
2022-12-19T21:21:22.732Z,4.02
2022-12-19T21:23:51.966Z,3.93
2022-12-19T21:26:23.064Z,3.89
2022-12-19T21:28:51.364Z,3.79
2022-12-19T21:31:21.642Z,3.72
2022-12-19T21:33:51.568Z,3.62
2022-12-19T21:36:22.058Z,3.55
2022-12-19T21:38:53.117Z,3.49
2022-12-19T21:41:23.032Z,3.46
2022-12-19T21:43:53.977Z,3.48
2022-12-19T21:46:24.144Z,3.53
2022-12-19T21:48:54.084Z,3.60
2022-12-19T21:51:25.345Z,3.71
2022-12-19T21:53:56.270Z,3.78
2022-12-19T21:56:28.832Z,3.80
2022-12-19T21:58:59.698Z,3.80
2022-12-19T22:01:28.259Z,3.81
2022-12-19T22:04:00.572Z,3.85
2022-12-19T22:06:31.781Z,3.83
2022-12-19T22:09:00.363Z,3.83
2022-12-19T22:11:30.812Z,3.83
2022-12-19T22:14:01.621Z,3.82
2022-12-19T22:16:30.253Z,3.83
2022-12-19T22:18:59.298Z,3.84
2022-12-19T22:21:27.686Z,3.84
2022-12-19T22:23:59.073Z,3.88
2022-12-19T22:26:30.052Z,3.88
2022-12-19T22:28:59.335Z,3.89
2022-12-19T22:31:29.467Z,4.01
2022-12-19T22:34:00.235Z,4.06
2022-12-19T22:36:29.903Z,4.12
2022-12-19T22:38:59.885Z,4.22
2022-12-19T22:41:29.896Z,4.39
2022-12-19T22:43:58.350Z,4.46
2022-12-19T22:46:28.371Z,4.53
2022-12-19T22:48:57.937Z,4.53
2022-12-19T22:51:27.316Z,4.51
2022-12-19T22:53:56.595Z,4.49
2022-12-19T22:56:25.943Z,4.46
2022-12-19T22:58:56.967Z,4.43
2022-12-19T23:01:28.515Z,4.36
2022-12-19T23:03:58.213Z,4.26
2022-12-19T23:06:29.287Z,4.23
2022-12-19T23:08:57.110Z,4.31
2022-12-19T23:11:28.921Z,4.39
2022-12-19T23:13:58.234Z,4.40
2022-12-19T23:16:26.169Z,4.41
2022-12-19T23:18:54.808Z,4.35
2022-12-19T23:21:24.721Z,4.27
2022-12-19T23:23:55.100Z,4.24
2022-12-19T23:26:25.543Z,4.25
2022-12-19T23:28:56.955Z,4.32
2022-12-19T23:31:27.477Z,4.51
2022-12-19T23:33:56.648Z,4.54
2022-12-19T23:37:00.402Z,4.58
2022-12-19T23:39:13.312Z,4.65
2022-12-19T23:41:42.068Z,4.67
2022-12-19T23:44:11.239Z,4.66
2022-12-19T23:46:41.182Z,4.70
2022-12-19T23:49:09.013Z,4.74
2022-12-19T23:51:36.827Z,4.68
2022-12-19T23:54:05.292Z,4.61
2022-12-19T23:56:33.807Z,4.55
2022-12-19T23:59:02.844Z,4.42
